McKinley Park, Alaska
Current Conditions -  °F | °C
As of 4:36 PM on Thursday 27 Nov 2014 (Local Time) from PAIN Reporting Station
Clear Clear  
Wind Chill: -6°   Ceiling: Unl
Heat Index: -6°   Visibility: 10mi
Dew Point: -8°   Wind: 0mph
Humidity: 92%   Direction: NA
Pressure: 30.13"   Gusts: NA
Location:  63.73°N, 148.91°W
Report Text: PAIN 280136Z AUTO 00000KT 10SM CLR M21/M22 A3013 RMK AO1
Loading
Personal Weather Stations






























Interactive Weather Map New forecast layout! Learn more

10-Day Weather Forecast

Advertisements
Track Severe Weather on mobile